sensor_id;sensor_type;location;lat;lon;timestamp;temperature;humidity
57664;DHT22;43493;53.098;6.064;2023-11-19T00:00:43;11.20;99.90
57664;DHT22;43493;53.098;6.064;2023-11-19T00:03:09;11.20;99.90
57664;DHT22;43493;53.098;6.064;2023-11-19T00:05:36;11.20;99.90
57664;DHT22;43493;53.098;6.064;2023-11-19T00:08:02;11.20;99.90
57664;DHT22;43493;53.098;6.064;2023-11-19T00:10:28;11.20;99.90
57664;DHT22;43493;53.098;6.064;2023-11-19T00:12:53;11.20;99.90
57664;DHT22;43493;53.098;6.064;2023-11-19T00:15:19;11.20;99.90
57664;DHT22;43493;53.098;6.064;2023-11-19T00:17:46;11.20;99.90
57664;DHT22;43493;53.098;6.064;2023-11-19T00:20:14;11.20;99.90
57664;DHT22;43493;53.098;6.064;2023-11-19T00:22:41;11.20;99.90
57664;DHT22;43493;53.098;6.064;2023-11-19T00:25:10;11.20;99.90
57664;DHT22;43493;53.098;6.064;2023-11-19T00:27:36;11.20;99.90
57664;DHT22;43493;53.098;6.064;2023-11-19T00:30:06;11.20;99.90
57664;DHT22;43493;53.098;6.064;2023-11-19T00:32:34;11.20;99.90
57664;DHT22;43493;53.098;6.064;2023-11-19T00:35:05;11.20;99.90
57664;DHT22;43493;53.098;6.064;2023-11-19T00:37:31;11.20;99.90
57664;DHT22;43493;53.098;6.064;2023-11-19T00:39:57;11.20;99.90
57664;DHT22;43493;53.098;6.064;2023-11-19T00:42:23;11.20;99.90
57664;DHT22;43493;53.098;6.064;2023-11-19T00:44:50;11.20;99.90
57664;DHT22;43493;53.098;6.064;2023-11-19T00:47:16;11.20;99.90
57664;DHT22;43493;53.098;6.064;2023-11-19T00:49:41;11.30;99.90
57664;DHT22;43493;53.098;6.064;2023-11-19T00:52:08;11.20;99.90
57664;DHT22;43493;53.098;6.064;2023-11-19T00:54:34;11.20;99.90
57664;DHT22;43493;53.098;6.064;2023-11-19T00:56:59;11.20;99.90
57664;DHT22;43493;53.098;6.064;2023-11-19T00:59:27;11.20;99.90
57664;DHT22;43493;53.098;6.064;2023-11-19T01:01:54;11.20;99.90
57664;DHT22;43493;53.098;6.064;2023-11-19T01:04:20;11.20;99.90
57664;DHT22;43493;53.098;6.064;2023-11-19T01:06:46;11.20;99.90
57664;DHT22;43493;53.098;6.064;2023-11-19T01:09:11;11.30;99.90
57664;DHT22;43493;53.098;6.064;2023-11-19T01:11:37;11.30;99.90
57664;DHT22;43493;53.098;6.064;2023-11-19T01:14:03;11.20;99.90
57664;DHT22;43493;53.098;6.064;2023-11-19T01:16:28;11.20;99.90
57664;DHT22;43493;53.098;6.064;2023-11-19T01:18:55;11.30;99.90
57664;DHT22;43493;53.098;6.064;2023-11-19T01:21:21;11.30;99.90
57664;DHT22;43493;53.098;6.064;2023-11-19T01:23:47;11.30;99.90
57664;DHT22;43493;53.098;6.064;2023-11-19T01:26:13;11.30;99.90
57664;DHT22;43493;53.098;6.064;2023-11-19T01:28:39;11.30;99.90
57664;DHT22;43493;53.098;6.064;2023-11-19T01:31:08;11.30;99.90
57664;DHT22;43493;53.098;6.064;2023-11-19T01:33:36;11.30;99.90
57664;DHT22;43493;53.098;6.064;2023-11-19T01:36:02;11.30;99.90
57664;DHT22;43493;53.098;6.064;2023-11-19T01:38:28;11.30;99.90
57664;DHT22;43493;53.098;6.064;2023-11-19T01:40:57;11.20;99.90
57664;DHT22;43493;53.098;6.064;2023-11-19T01:43:34;11.30;99.90
57664;DHT22;43493;53.098;6.064;2023-11-19T01:46:01;11.20;99.90
57664;DHT22;43493;53.098;6.064;2023-11-19T01:48:27;11.20;99.90
57664;DHT22;43493;53.098;6.064;2023-11-19T01:50:53;11.20;99.90
57664;DHT22;43493;53.098;6.064;2023-11-19T01:53:19;11.20;99.90
57664;DHT22;43493;53.098;6.064;2023-11-19T01:55:49;11.10;99.90
57664;DHT22;43493;53.098;6.064;2023-11-19T01:58:15;11.20;99.90
57664;DHT22;43493;53.098;6.064;2023-11-19T02:00:43;11.20;99.90
57664;DHT22;43493;53.098;6.064;2023-11-19T02:03:09;11.10;99.90
57664;DHT22;43493;53.098;6.064;2023-11-19T02:05:35;11.10;99.90
57664;DHT22;43493;53.098;6.064;2023-11-19T02:08:02;11.10;99.90
57664;DHT22;43493;53.098;6.064;2023-11-19T02:10:28;11.10;99.90
57664;DHT22;43493;53.098;6.064;2023-11-19T02:12:54;11.10;99.90
57664;DHT22;43493;53.098;6.064;2023-11-19T02:15:20;11.10;99.90
57664;DHT22;43493;53.098;6.064;2023-11-19T02:17:50;11.10;99.90
57664;DHT22;43493;53.098;6.064;2023-11-19T02:20:16;11.00;99.90
57664;DHT22;43493;53.098;6.064;2023-11-19T02:22:42;11.10;99.90
57664;DHT22;43493;53.098;6.064;2023-11-19T02:25:19;11.00;99.90
57664;DHT22;43493;53.098;6.064;2023-11-19T02:27:57;11.00;99.90
57664;DHT22;43493;53.098;6.064;2023-11-19T02:30:25;11.00;99.90
57664;DHT22;43493;53.098;6.064;2023-11-19T02:32:55;11.00;99.90
57664;DHT22;43493;53.098;6.064;2023-11-19T02:35:26;11.00;99.90
57664;DHT22;43493;53.098;6.064;2023-11-19T02:37:52;11.00;99.90
57664;DHT22;43493;53.098;6.064;2023-11-19T02:40:18;11.00;99.90
57664;DHT22;43493;53.098;6.064;2023-11-19T02:42:44;11.00;99.90
57664;DHT22;43493;53.098;6.064;2023-11-19T02:45:10;11.00;99.90
57664;DHT22;43493;53.098;6.064;2023-11-19T02:47:43;11.00;99.90
57664;DHT22;43493;53.098;6.064;2023-11-19T02:50:12;11.00;99.90
57664;DHT22;43493;53.098;6.064;2023-11-19T02:52:45;11.00;99.90
57664;DHT22;43493;53.098;6.064;2023-11-19T02:55:12;10.90;99.90
57664;DHT22;43493;53.098;6.064;2023-11-19T02:57:41;10.90;99.90
57664;DHT22;43493;53.098;6.064;2023-11-19T03:00:18;10.90;99.90
57664;DHT22;43493;53.098;6.064;2023-11-19T03:02:47;11.00;99.90
57664;DHT22;43493;53.098;6.064;2023-11-19T03:05:15;11.00;99.90
57664;DHT22;43493;53.098;6.064;2023-11-19T03:07:44;11.00;99.90
57664;DHT22;43493;53.098;6.064;2023-11-19T03:10:11;11.00;99.90
57664;DHT22;43493;53.098;6.064;2023-11-19T03:12:40;10.90;99.90
57664;DHT22;43493;53.098;6.064;2023-11-19T03:15:07;11.00;99.90
57664;DHT22;43493;53.098;6.064;2023-11-19T03:17:33;11.00;99.90
57664;DHT22;43493;53.098;6.064;2023-11-19T03:20:00;11.00;99.90
57664;DHT22;43493;53.098;6.064;2023-11-19T03:22:26;11.00;99.90
57664;DHT22;43493;53.098;6.064;2023-11-19T03:24:52;11.00;99.90
57664;DHT22;43493;53.098;6.064;2023-11-19T03:27:18;11.00;99.90
57664;DHT22;43493;53.098;6.064;2023-11-19T03:29:43;11.00;99.90
57664;DHT22;43493;53.098;6.064;2023-11-19T03:32:09;11.00;99.90
57664;DHT22;43493;53.098;6.064;2023-11-19T03:34:34;11.10;99.90
57664;DHT22;43493;53.098;6.064;2023-11-19T03:37:00;11.00;99.90
57664;DHT22;43493;53.098;6.064;2023-11-19T03:39:26;11.00;99.90
57664;DHT22;43493;53.098;6.064;2023-11-19T03:41:52;11.00;99.90
57664;DHT22;43493;53.098;6.064;2023-11-19T03:44:18;11.00;99.90
57664;DHT22;43493;53.098;6.064;2023-11-19T03:46:44;11.00;99.90
57664;DHT22;43493;53.098;6.064;2023-11-19T03:49:11;11.00;99.90
57664;DHT22;43493;53.098;6.064;2023-11-19T03:51:37;11.10;99.90
57664;DHT22;43493;53.098;6.064;2023-11-19T03:54:03;11.10;99.90
57664;DHT22;43493;53.098;6.064;2023-11-19T03:56:29;11.10;99.90
57664;DHT22;43493;53.098;6.064;2023-11-19T03:58:56;11.10;99.90
57664;DHT22;43493;53.098;6.064;2023-11-19T04:01:22;11.00;99.90
57664;DHT22;43493;53.098;6.064;2023-11-19T04:03:47;11.10;99.90
57664;DHT22;43493;53.098;6.064;2023-11-19T04:06:13;11.00;99.90
57664;DHT22;43493;53.098;6.064;2023-11-19T04:08:39;11.00;99.90
57664;DHT22;43493;53.098;6.064;2023-11-19T04:11:05;11.00;99.90
57664;DHT22;43493;53.098;6.064;2023-11-19T04:13:31;11.00;99.90
57664;DHT22;43493;53.098;6.064;2023-11-19T04:15:57;11.00;99.90
57664;DHT22;43493;53.098;6.064;2023-11-19T04:18:22;11.00;99.90
57664;DHT22;43493;53.098;6.064;2023-11-19T04:20:49;11.00;99.90
57664;DHT22;43493;53.098;6.064;2023-11-19T04:23:15;10.90;99.90
57664;DHT22;43493;53.098;6.064;2023-11-19T04:25:41;10.90;99.90
57664;DHT22;43493;53.098;6.064;2023-11-19T04:28:07;10.90;99.90
57664;DHT22;43493;53.098;6.064;2023-11-19T04:30:33;10.90;99.90
57664;DHT22;43493;53.098;6.064;2023-11-19T04:32:59;11.00;99.90
57664;DHT22;43493;53.098;6.064;2023-11-19T04:35:25;10.90;99.90
57664;DHT22;43493;53.098;6.064;2023-11-19T04:37:51;10.90;99.90
57664;DHT22;43493;53.098;6.064;2023-11-19T04:40:17;10.90;99.90
57664;DHT22;43493;53.098;6.064;2023-11-19T04:42:48;10.90;99.90
57664;DHT22;43493;53.098;6.064;2023-11-19T04:45:13;10.80;99.90
57664;DHT22;43493;53.098;6.064;2023-11-19T04:47:39;10.90;99.90
57664;DHT22;43493;53.098;6.064;2023-11-19T04:50:05;10.90;99.90
57664;DHT22;43493;53.098;6.064;2023-11-19T04:52:31;10.80;99.90
57664;DHT22;43493;53.098;6.064;2023-11-19T04:54:57;10.90;99.90
57664;DHT22;43493;53.098;6.064;2023-11-19T04:57:23;10.90;99.90
57664;DHT22;43493;53.098;6.064;2023-11-19T04:59:48;10.90;99.90
57664;DHT22;43493;53.098;6.064;2023-11-19T05:02:14;10.80;99.90
57664;DHT22;43493;53.098;6.064;2023-11-19T05:04:44;10.90;99.90
57664;DHT22;43493;53.098;6.064;2023-11-19T05:07:09;10.90;99.90
57664;DHT22;43493;53.098;6.064;2023-11-19T05:09:35;10.90;99.90
57664;DHT22;43493;53.098;6.064;2023-11-19T05:12:01;10.90;99.90
57664;DHT22;43493;53.098;6.064;2023-11-19T05:14:27;10.90;99.90
57664;DHT22;43493;53.098;6.064;2023-11-19T05:16:53;10.90;99.90
57664;DHT22;43493;53.098;6.064;2023-11-19T05:19:19;10.90;99.90
57664;DHT22;43493;53.098;6.064;2023-11-19T05:21:44;10.90;99.90
57664;DHT22;43493;53.098;6.064;2023-11-19T05:24:10;10.90;99.90
57664;DHT22;43493;53.098;6.064;2023-11-19T05:26:38;10.90;99.90
57664;DHT22;43493;53.098;6.064;2023-11-19T05:29:03;10.90;99.90
57664;DHT22;43493;53.098;6.064;2023-11-19T05:31:30;10.80;99.90
57664;DHT22;43493;53.098;6.064;2023-11-19T05:33:55;10.80;99.90
57664;DHT22;43493;53.098;6.064;2023-11-19T05:36:21;10.70;99.90
57664;DHT22;43493;53.098;6.064;2023-11-19T05:38:47;10.70;99.90
57664;DHT22;43493;53.098;6.064;2023-11-19T05:41:13;10.70;99.90
57664;DHT22;43493;53.098;6.064;2023-11-19T05:43:39;10.80;99.90
57664;DHT22;43493;53.098;6.064;2023-11-19T05:46:06;10.70;99.90
57664;DHT22;43493;53.098;6.064;2023-11-19T05:48:32;10.80;99.90
57664;DHT22;43493;53.098;6.064;2023-11-19T05:50:58;10.70;99.90
57664;DHT22;43493;53.098;6.064;2023-11-19T05:53:24;10.80;99.90
57664;DHT22;43493;53.098;6.064;2023-11-19T05:55:50;10.70;99.90
57664;DHT22;43493;53.098;6.064;2023-11-19T05:58:27;10.70;99.90
57664;DHT22;43493;53.098;6.064;2023-11-19T06:00:57;10.70;99.90
57664;DHT22;43493;53.098;6.064;2023-11-19T06:03:23;10.70;99.90
57664;DHT22;43493;53.098;6.064;2023-11-19T06:05:49;10.70;99.90
57664;DHT22;43493;53.098;6.064;2023-11-19T06:08:15;10.70;99.90
57664;DHT22;43493;53.098;6.064;2023-11-19T06:10:43;10.70;99.90
57664;DHT22;43493;53.098;6.064;2023-11-19T06:13:09;10.60;99.90
57664;DHT22;43493;53.098;6.064;2023-11-19T06:15:35;10.60;99.90
57664;DHT22;43493;53.098;6.064;2023-11-19T06:18:02;10.60;99.90
57664;DHT22;43493;53.098;6.064;2023-11-19T06:20:33;10.60;99.90
57664;DHT22;43493;53.098;6.064;2023-11-19T06:22:59;10.60;99.90
57664;DHT22;43493;53.098;6.064;2023-11-19T06:25:26;10.60;99.90
57664;DHT22;43493;53.098;6.064;2023-11-19T06:27:52;10.60;99.90
57664;DHT22;43493;53.098;6.064;2023-11-19T06:30:18;10.60;99.90
57664;DHT22;43493;53.098;6.064;2023-11-19T06:32:44;10.60;99.90
57664;DHT22;43493;53.098;6.064;2023-11-19T06:35:10;10.60;99.90
57664;DHT22;43493;53.098;6.064;2023-11-19T06:37:38;10.60;99.90
57664;DHT22;43493;53.098;6.064;2023-11-19T06:40:05;10.60;99.90
57664;DHT22;43493;53.098;6.064;2023-11-19T06:42:31;10.50;99.90
57664;DHT22;43493;53.098;6.064;2023-11-19T06:44:56;10.50;99.90
57664;DHT22;43493;53.098;6.064;2023-11-19T06:47:26;10.60;99.90
57664;DHT22;43493;53.098;6.064;2023-11-19T06:49:52;10.50;99.90
57664;DHT22;43493;53.098;6.064;2023-11-19T06:52:18;10.50;99.90
57664;DHT22;43493;53.098;6.064;2023-11-19T06:54:44;10.50;99.90
57664;DHT22;43493;53.098;6.064;2023-11-19T06:57:11;10.50;99.90
57664;DHT22;43493;53.098;6.064;2023-11-19T06:59:37;10.50;99.90
57664;DHT22;43493;53.098;6.064;2023-11-19T07:02:03;10.50;99.90
57664;DHT22;43493;53.098;6.064;2023-11-19T07:04:30;10.50;99.90
57664;DHT22;43493;53.098;6.064;2023-11-19T07:06:56;10.50;99.90
57664;DHT22;43493;53.098;6.064;2023-11-19T07:09:22;10.50;99.90
57664;DHT22;43493;53.098;6.064;2023-11-19T07:11:48;10.50;99.90
57664;DHT22;43493;53.098;6.064;2023-11-19T07:14:17;10.50;99.90
57664;DHT22;43493;53.098;6.064;2023-11-19T07:16:43;10.40;99.90
57664;DHT22;43493;53.098;6.064;2023-11-19T07:19:09;10.50;99.90
57664;DHT22;43493;53.098;6.064;2023-11-19T07:21:35;10.50;99.90
57664;DHT22;43493;53.098;6.064;2023-11-19T07:24:05;10.50;99.90
57664;DHT22;43493;53.098;6.064;2023-11-19T07:26:31;10.50;99.90
57664;DHT22;43493;53.098;6.064;2023-11-19T07:28:57;10.50;99.90
57664;DHT22;43493;53.098;6.064;2023-11-19T07:31:24;10.50;99.90
57664;DHT22;43493;53.098;6.064;2023-11-19T07:33:50;10.40;99.90
57664;DHT22;43493;53.098;6.064;2023-11-19T07:36:15;10.40;99.90
57664;DHT22;43493;53.098;6.064;2023-11-19T07:38:42;10.40;99.90
57664;DHT22;43493;53.098;6.064;2023-11-19T07:41:08;10.40;99.90
57664;DHT22;43493;53.098;6.064;2023-11-19T07:43:39;10.40;99.90
57664;DHT22;43493;53.098;6.064;2023-11-19T07:46:09;10.50;99.90
57664;DHT22;43493;53.098;6.064;2023-11-19T07:48:35;10.50;99.90
57664;DHT22;43493;53.098;6.064;2023-11-19T07:51:02;10.50;99.90
57664;DHT22;43493;53.098;6.064;2023-11-19T07:53:27;10.50;99.90
57664;DHT22;43493;53.098;6.064;2023-11-19T07:55:53;10.50;99.90
57664;DHT22;43493;53.098;6.064;2023-11-19T07:58:19;10.50;99.90
57664;DHT22;43493;53.098;6.064;2023-11-19T08:00:45;10.50;99.90
57664;DHT22;43493;53.098;6.064;2023-11-19T08:03:10;10.50;99.90
57664;DHT22;43493;53.098;6.064;2023-11-19T08:05:36;10.50;99.90
57664;DHT22;43493;53.098;6.064;2023-11-19T08:08:02;10.50;99.90
57664;DHT22;43493;53.098;6.064;2023-11-19T08:10:28;10.50;99.90
57664;DHT22;43493;53.098;6.064;2023-11-19T08:12:54;10.50;99.90
57664;DHT22;43493;53.098;6.064;2023-11-19T08:15:19;10.50;99.90
57664;DHT22;43493;53.098;6.064;2023-11-19T08:17:45;10.60;99.90
57664;DHT22;43493;53.098;6.064;2023-11-19T08:20:11;10.50;99.90
57664;DHT22;43493;53.098;6.064;2023-11-19T08:22:37;10.60;99.90
57664;DHT22;43493;53.098;6.064;2023-11-19T08:25:07;10.60;99.90
57664;DHT22;43493;53.098;6.064;2023-11-19T08:27:33;10.60;99.90
57664;DHT22;43493;53.098;6.064;2023-11-19T08:29:59;10.60;99.90
57664;DHT22;43493;53.098;6.064;2023-11-19T08:32:26;10.60;99.90
57664;DHT22;43493;53.098;6.064;2023-11-19T08:34:52;10.60;99.90
57664;DHT22;43493;53.098;6.064;2023-11-19T08:37:18;10.60;99.90
57664;DHT22;43493;53.098;6.064;2023-11-19T08:39:49;10.60;99.90
57664;DHT22;43493;53.098;6.064;2023-11-19T08:42:16;10.60;99.90
57664;DHT22;43493;53.098;6.064;2023-11-19T08:44:42;10.60;99.90
57664;DHT22;43493;53.098;6.064;2023-11-19T08:47:11;10.60;99.90
57664;DHT22;43493;53.098;6.064;2023-11-19T08:49:36;10.60;99.90
57664;DHT22;43493;53.098;6.064;2023-11-19T08:52:02;10.60;99.90
57664;DHT22;43493;53.098;6.064;2023-11-19T08:54:28;10.60;99.90
57664;DHT22;43493;53.098;6.064;2023-11-19T08:56:53;10.70;99.90
57664;DHT22;43493;53.098;6.064;2023-11-19T08:59:19;10.70;99.90
57664;DHT22;43493;53.098;6.064;2023-11-19T09:01:45;10.70;99.90
57664;DHT22;43493;53.098;6.064;2023-11-19T09:04:11;10.80;99.90
57664;DHT22;43493;53.098;6.064;2023-11-19T09:06:37;10.80;99.90
57664;DHT22;43493;53.098;6.064;2023-11-19T09:09:03;10.80;99.90
57664;DHT22;43493;53.098;6.064;2023-11-19T09:11:31;10.90;99.90
57664;DHT22;43493;53.098;6.064;2023-11-19T09:13:57;11.00;99.90
57664;DHT22;43493;53.098;6.064;2023-11-19T09:16:22;11.00;99.90
57664;DHT22;43493;53.098;6.064;2023-11-19T09:18:48;11.00;99.90
57664;DHT22;43493;53.098;6.064;2023-11-19T09:21:14;11.10;99.90
57664;DHT22;43493;53.098;6.064;2023-11-19T09:23:39;11.10;99.90
57664;DHT22;43493;53.098;6.064;2023-11-19T09:26:06;11.10;99.90
57664;DHT22;43493;53.098;6.064;2023-11-19T09:28:33;11.10;99.90
57664;DHT22;43493;53.098;6.064;2023-11-19T09:30:59;11.10;99.90
57664;DHT22;43493;53.098;6.064;2023-11-19T09:33:25;11.10;99.90
57664;DHT22;43493;53.098;6.064;2023-11-19T09:35:51;11.10;99.90
57664;DHT22;43493;53.098;6.064;2023-11-19T09:38:17;11.10;99.90
57664;DHT22;43493;53.098;6.064;2023-11-19T09:40:43;11.10;99.90
57664;DHT22;43493;53.098;6.064;2023-11-19T09:43:09;11.10;99.90
57664;DHT22;43493;53.098;6.064;2023-11-19T09:45:48;11.20;99.90
57664;DHT22;43493;53.098;6.064;2023-11-19T09:48:18;11.20;99.90
57664;DHT22;43493;53.098;6.064;2023-11-19T09:50:46;11.20;99.90
57664;DHT22;43493;53.098;6.064;2023-11-19T09:53:13;11.20;99.90
57664;DHT22;43493;53.098;6.064;2023-11-19T09:55:39;11.20;99.90
57664;DHT22;43493;53.098;6.064;2023-11-19T09:58:05;11.20;99.90
57664;DHT22;43493;53.098;6.064;2023-11-19T10:00:32;11.20;99.90
57664;DHT22;43493;53.098;6.064;2023-11-19T10:02:59;11.20;99.90
57664;DHT22;43493;53.098;6.064;2023-11-19T10:05:26;11.20;99.90
57664;DHT22;43493;53.098;6.064;2023-11-19T10:07:52;11.10;99.90
57664;DHT22;43493;53.098;6.064;2023-11-19T10:10:18;11.10;99.90
57664;DHT22;43493;53.098;6.064;2023-11-19T10:12:50;11.10;99.90
57664;DHT22;43493;53.098;6.064;2023-11-19T10:15:23;11.10;99.90
57664;DHT22;43493;53.098;6.064;2023-11-19T10:17:56;11.10;99.90
57664;DHT22;43493;53.098;6.064;2023-11-19T10:20:22;11.10;99.90
57664;DHT22;43493;53.098;6.064;2023-11-19T10:22:48;11.10;99.90
57664;DHT22;43493;53.098;6.064;2023-11-19T10:25:25;11.20;99.90
57664;DHT22;43493;53.098;6.064;2023-11-19T10:27:52;11.10;99.90
57664;DHT22;43493;53.098;6.064;2023-11-19T10:30:23;11.20;99.90
57664;DHT22;43493;53.098;6.064;2023-11-19T10:33:08;11.10;99.90
57664;DHT22;43493;53.098;6.064;2023-11-19T10:35:36;11.20;99.90
57664;DHT22;43493;53.098;6.064;2023-11-19T10:38:13;11.20;99.90
57664;DHT22;43493;53.098;6.064;2023-11-19T10:40:40;11.20;99.90
57664;DHT22;43493;53.098;6.064;2023-11-19T10:43:07;11.20;99.90
57664;DHT22;43493;53.098;6.064;2023-11-19T10:45:37;11.20;99.90
57664;DHT22;43493;53.098;6.064;2023-11-19T10:48:03;11.20;99.90
57664;DHT22;43493;53.098;6.064;2023-11-19T10:50:33;11.30;99.90
57664;DHT22;43493;53.098;6.064;2023-11-19T10:53:00;11.30;99.90
57664;DHT22;43493;53.098;6.064;2023-11-19T10:55:30;11.30;99.90
57664;DHT22;43493;53.098;6.064;2023-11-19T10:58:01;11.40;99.90
57664;DHT22;43493;53.098;6.064;2023-11-19T11:00:52;11.40;99.90
57664;DHT22;43493;53.098;6.064;2023-11-19T11:03:20;11.40;99.90
57664;DHT22;43493;53.098;6.064;2023-11-19T11:05:47;11.50;99.90
57664;DHT22;43493;53.098;6.064;2023-11-19T11:08:14;11.50;99.90
57664;DHT22;43493;53.098;6.064;2023-11-19T11:10:44;11.50;99.90
57664;DHT22;43493;53.098;6.064;2023-11-19T11:13:10;11.50;99.90
57664;DHT22;43493;53.098;6.064;2023-11-19T11:15:37;11.50;99.90
57664;DHT22;43493;53.098;6.064;2023-11-19T11:18:05;11.50;99.90
57664;DHT22;43493;53.098;6.064;2023-11-19T11:20:33;11.50;99.90
57664;DHT22;43493;53.098;6.064;2023-11-19T11:29:02;11.60;99.90
57664;DHT22;43493;53.098;6.064;2023-11-19T11:37:46;11.60;99.90
57664;DHT22;43493;53.098;6.064;2023-11-19T11:40:17;11.60;99.90
57664;DHT22;43493;53.098;6.064;2023-11-19T11:42:44;11.60;99.90
57664;DHT22;43493;53.098;6.064;2023-11-19T11:45:11;11.60;99.90
57664;DHT22;43493;53.098;6.064;2023-11-19T11:50:14;11.70;99.90
57664;DHT22;43493;53.098;6.064;2023-11-19T11:57:50;11.60;99.90
57664;DHT22;43493;53.098;6.064;2023-11-19T12:00:42;11.70;99.90
57664;DHT22;43493;53.098;6.064;2023-11-19T12:03:09;11.70;99.90
57664;DHT22;43493;53.098;6.064;2023-11-19T12:05:45;11.70;99.90
57664;DHT22;43493;53.098;6.064;2023-11-19T12:08:12;11.60;99.90
57664;DHT22;43493;53.098;6.064;2023-11-19T12:10:51;11.60;99.90
57664;DHT22;43493;53.098;6.064;2023-11-19T12:13:18;11.60;99.90
57664;DHT22;43493;53.098;6.064;2023-11-19T12:18:29;11.60;99.90
57664;DHT22;43493;53.098;6.064;2023-11-19T12:20:56;11.70;99.90
57664;DHT22;43493;53.098;6.064;2023-11-19T12:23:25;11.70;99.90
57664;DHT22;43493;53.098;6.064;2023-11-19T12:25:51;11.80;99.90
57664;DHT22;43493;53.098;6.064;2023-11-19T12:28:17;11.70;99.90
57664;DHT22;43493;53.098;6.064;2023-11-19T12:30:43;11.80;99.90
57664;DHT22;43493;53.098;6.064;2023-11-19T12:33:14;11.80;99.90
57664;DHT22;43493;53.098;6.064;2023-11-19T12:38:06;11.90;99.90
57664;DHT22;43493;53.098;6.064;2023-11-19T12:40:32;12.00;99.90
57664;DHT22;43493;53.098;6.064;2023-11-19T12:42:58;12.00;99.90
57664;DHT22;43493;53.098;6.064;2023-11-19T12:45:24;12.00;99.90
57664;DHT22;43493;53.098;6.064;2023-11-19T12:48:07;12.10;99.90
57664;DHT22;43493;53.098;6.064;2023-11-19T12:50:54;12.10;99.90
57664;DHT22;43493;53.098;6.064;2023-11-19T12:53:21;12.10;99.90
57664;DHT22;43493;53.098;6.064;2023-11-19T12:55:46;12.10;99.90
57664;DHT22;43493;53.098;6.064;2023-11-19T12:58:32;12.10;99.90
57664;DHT22;43493;53.098;6.064;2023-11-19T13:01:01;12.10;99.90
57664;DHT22;43493;53.098;6.064;2023-11-19T13:03:34;12.10;99.90
57664;DHT22;43493;53.098;6.064;2023-11-19T13:08:55;12.00;99.90
57664;DHT22;43493;53.098;6.064;2023-11-19T13:11:34;12.00;99.90
57664;DHT22;43493;53.098;6.064;2023-11-19T13:14:02;11.90;99.90
57664;DHT22;43493;53.098;6.064;2023-11-19T13:16:35;11.90;99.90
57664;DHT22;43493;53.098;6.064;2023-11-19T13:19:01;11.90;99.90
57664;DHT22;43493;53.098;6.064;2023-11-19T13:21:28;11.90;99.90
57664;DHT22;43493;53.098;6.064;2023-11-19T13:23:55;11.90;99.90
57664;DHT22;43493;53.098;6.064;2023-11-19T13:26:21;11.90;99.90
57664;DHT22;43493;53.098;6.064;2023-11-19T13:28:47;11.90;99.90
57664;DHT22;43493;53.098;6.064;2023-11-19T13:31:13;11.90;99.90
57664;DHT22;43493;53.098;6.064;2023-11-19T13:33:39;11.90;99.90
57664;DHT22;43493;53.098;6.064;2023-11-19T13:36:05;11.90;99.90
57664;DHT22;43493;53.098;6.064;2023-11-19T13:38:36;11.90;99.90
57664;DHT22;43493;53.098;6.064;2023-11-19T13:41:05;11.80;99.90
57664;DHT22;43493;53.098;6.064;2023-11-19T13:43:31;11.80;99.90
57664;DHT22;43493;53.098;6.064;2023-11-19T13:45:57;11.80;99.90
57664;DHT22;43493;53.098;6.064;2023-11-19T13:48:24;11.90;99.90
57664;DHT22;43493;53.098;6.064;2023-11-19T13:50:50;11.80;99.90
57664;DHT22;43493;53.098;6.064;2023-11-19T13:53:16;11.80;99.90
57664;DHT22;43493;53.098;6.064;2023-11-19T13:55:42;11.80;99.90
57664;DHT22;43493;53.098;6.064;2023-11-19T13:58:08;11.80;99.90
57664;DHT22;43493;53.098;6.064;2023-11-19T14:00:34;11.80;99.90
57664;DHT22;43493;53.098;6.064;2023-11-19T14:03:00;11.80;99.90
57664;DHT22;43493;53.098;6.064;2023-11-19T14:05:26;11.80;99.90
57664;DHT22;43493;53.098;6.064;2023-11-19T14:07:52;11.80;99.90
57664;DHT22;43493;53.098;6.064;2023-11-19T14:10:19;11.80;99.90
57664;DHT22;43493;53.098;6.064;2023-11-19T14:12:45;11.70;99.90
57664;DHT22;43493;53.098;6.064;2023-11-19T14:15:11;11.70;99.90
57664;DHT22;43493;53.098;6.064;2023-11-19T14:17:38;11.70;99.90
57664;DHT22;43493;53.098;6.064;2023-11-19T14:20:05;11.70;99.90
57664;DHT22;43493;53.098;6.064;2023-11-19T14:22:42;11.60;99.90
57664;DHT22;43493;53.098;6.064;2023-11-19T14:25:09;11.60;99.90
57664;DHT22;43493;53.098;6.064;2023-11-19T14:27:43;11.60;99.90
57664;DHT22;43493;53.098;6.064;2023-11-19T14:30:10;11.60;99.90
57664;DHT22;43493;53.098;6.064;2023-11-19T14:32:37;11.60;99.90
57664;DHT22;43493;53.098;6.064;2023-11-19T14:35:04;11.60;99.90
57664;DHT22;43493;53.098;6.064;2023-11-19T14:37:30;11.60;99.90
57664;DHT22;43493;53.098;6.064;2023-11-19T14:39:59;11.60;99.90
57664;DHT22;43493;53.098;6.064;2023-11-19T14:42:25;11.60;99.90
57664;DHT22;43493;53.098;6.064;2023-11-19T14:44:51;11.60;99.90
57664;DHT22;43493;53.098;6.064;2023-11-19T14:47:21;11.60;99.90
57664;DHT22;43493;53.098;6.064;2023-11-19T14:49:47;11.60;99.90
57664;DHT22;43493;53.098;6.064;2023-11-19T14:52:13;11.60;99.90
57664;DHT22;43493;53.098;6.064;2023-11-19T14:54:39;11.60;99.90
57664;DHT22;43493;53.098;6.064;2023-11-19T14:57:05;11.60;99.90
57664;DHT22;43493;53.098;6.064;2023-11-19T14:59:33;11.60;99.90
57664;DHT22;43493;53.098;6.064;2023-11-19T15:01:59;11.60;99.90
57664;DHT22;43493;53.098;6.064;2023-11-19T15:04:26;11.50;99.90
57664;DHT22;43493;53.098;6.064;2023-11-19T15:06:52;11.50;99.90
57664;DHT22;43493;53.098;6.064;2023-11-19T15:09:19;11.50;99.90
57664;DHT22;43493;53.098;6.064;2023-11-19T15:11:47;11.50;99.90
57664;DHT22;43493;53.098;6.064;2023-11-19T15:14:15;11.50;99.90
57664;DHT22;43493;53.098;6.064;2023-11-19T15:16:44;11.50;99.90
57664;DHT22;43493;53.098;6.064;2023-11-19T15:19:10;11.50;99.90
57664;DHT22;43493;53.098;6.064;2023-11-19T15:21:38;11.50;99.90
57664;DHT22;43493;53.098;6.064;2023-11-19T15:24:04;11.50;99.90
57664;DHT22;43493;53.098;6.064;2023-11-19T15:26:33;11.40;99.90
57664;DHT22;43493;53.098;6.064;2023-11-19T15:28:59;11.40;99.90
57664;DHT22;43493;53.098;6.064;2023-11-19T15:31:25;11.40;99.90
57664;DHT22;43493;53.098;6.064;2023-11-19T15:33:51;11.40;99.90
57664;DHT22;43493;53.098;6.064;2023-11-19T15:36:17;11.30;99.90
57664;DHT22;43493;53.098;6.064;2023-11-19T15:38:43;11.30;99.90
57664;DHT22;43493;53.098;6.064;2023-11-19T15:41:09;11.20;99.90
57664;DHT22;43493;53.098;6.064;2023-11-19T15:43:35;11.20;99.90
57664;DHT22;43493;53.098;6.064;2023-11-19T15:46:05;11.20;99.90
57664;DHT22;43493;53.098;6.064;2023-11-19T15:48:31;11.20;99.90
57664;DHT22;43493;53.098;6.064;2023-11-19T15:50:57;11.20;99.90
57664;DHT22;43493;53.098;6.064;2023-11-19T15:53:23;11.20;99.90
57664;DHT22;43493;53.098;6.064;2023-11-19T15:55:48;11.20;99.90
57664;DHT22;43493;53.098;6.064;2023-11-19T15:58:14;11.20;99.90